Time;durP1;ratioP1;P1;durP2;ratioP2;P2;SDS_P1;SDS_P2;PMS_P1;PMS_P2;Temp;Humidity;BMP_temperature;BMP_pressure;BME280_temperature;BME280_humidity;BME280_pressure;Samples;Min_cycle;Max_cycle;Signal;HPM_P1;HPM_P2
2020/12/26 00:01:34;;;;;;;8.88;3.47;;;26.60;88.00;;;;;;6087582;23;20003;-89
2020/12/26 00:04:26;;;;;;;6.97;3.72;;;26.60;88.60;;;;;;6109291;23;20065;-87
2020/12/26 00:07:46;;;;;;;5.18;4.10;;;26.50;88.30;;;;;;6087806;23;20018;-90
2020/12/26 00:10:12;;;;;;;5.43;3.45;;;26.50;88.50;;;;;;6036336;23;20277;-90
2020/12/26 00:13:13;;;;;;;;;;;;;;;;;;;;;
2020/12/26 00:15:55;;;;;;;5.57;3.15;;;26.40;88.40;;;;;;6033081;23;20015;-88
2020/12/26 00:22:09;;;;;;;6.13;2.53;;;26.30;88.70;;;;;;6071867;23;20077;-86
2020/12/26 00:24:59;;;;;;;7.05;2.38;;;26.20;88.80;;;;;;6042618;23;20002;-90
2020/12/26 00:27:25;;;;;;;4.30;3.05;;;26.20;88.60;;;;;;6144508;23;20040;-92
2020/12/26 00:29:54;;;;;;;4.40;2.53;;;26.20;88.10;;;;;;6144375;23;19997;-89
2020/12/26 00:32:24;;;;;;;4.87;2.43;;;26.20;88.10;;;;;;6165850;23;20129;-94
2020/12/26 00:44:02;;;;;;;7.85;7.03;;;26.20;87.90;;;;;;6237432;23;20024;-88
2020/12/26 00:47:17;;;;;;;8.32;5.47;;;26.10;88.00;;;;;;6203223;23;20016;-90
2020/12/26 00:49:41;;;;;;;6.43;4.27;;;26.00;88.30;;;;;;6162962;23;20245;-89
2020/12/26 00:52:32;;;;;;;9.60;6.88;;;26.00;87.90;;;;;;6228030;23;19999;-87
2020/12/26 00:54:59;;;;;;;12.27;6.13;;;26.00;88.50;;;;;;6140665;23;20081;-86
2020/12/26 00:57:36;;;;;;;9.85;5.60;;;25.90;88.30;;;;;;6168706;23;20050;-88
2020/12/26 01:03:08;;;;;;;10.25;7.07;;;25.80;88.40;;;;;;6201530;22;20220;-89
2020/12/26 01:05:35;;;;;;;9.57;6.35;;;25.80;87.50;;;;;;6241946;23;20048;-90
2020/12/26 01:08:41;;;;;;;;;;;;;;;;;;;;;
2020/12/26 01:41:49;;;;;;;5.53;3.30;;;26.30;85.40;;;;;;6261456;23;20803;-88
2020/12/26 01:44:46;;;;;;;5.93;2.70;;;26.20;85.20;;;;;;6221632;22;20032;-93
2020/12/26 01:50:10;;;;;;;3.10;2.08;;;26.20;85.20;;;;;;6201520;23;20275;-89
2020/12/26 01:55:41;;;;;;;3.47;1.60;;;26.00;85.20;;;;;;6250179;22;20035;-91
2020/12/26 01:58:53;;;;;;;2.58;1.70;;;26.00;85.40;;;;;;6239360;23;20030;-91
2020/12/26 02:08:59;;;;;;;2.88;1.65;;;25.90;85.50;;;;;;6261001;23;20314;-87
2020/12/26 02:11:31;;;;;;;4.20;1.55;;;25.80;85.30;;;;;;6192845;23;20012;-89
2020/12/26 02:14:00;;;;;;;2.08;1.48;;;25.80;85.70;;;;;;6196517;23;19997;-93
2020/12/26 02:16:44;;;;;;;4.22;1.73;;;25.80;85.70;;;;;;6204656;23;20304;-91
2020/12/26 02:19:12;;;;;;;5.80;1.92;;;25.80;85.50;;;;;;6206841;23;20004;-91
2020/12/26 02:22:05;;;;;;;4.47;1.67;;;25.80;85.70;;;;;;6137797;23;20061;-96
2020/12/26 02:24:38;;;;;;;5.10;1.60;;;25.80;85.60;;;;;;6140823;23;20202;-89
2020/12/26 02:27:05;;;;;;;3.58;1.45;;;25.80;85.80;;;;;;6116790;23;20025;-89
2020/12/26 02:30:40;;;;;;;2.42;1.50;;;25.80;85.60;;;;;;6115844;23;20057;-89
2020/12/26 02:33:30;;;;;;;3.30;1.50;;;25.80;85.90;;;;;;6108893;23;20005;-96
2020/12/26 02:35:58;;;;;;;3.50;1.48;;;25.80;85.60;;;;;;6107054;23;20021;-92
2020/12/26 02:38:37;;;;;;;8.05;1.70;;;25.70;85.40;;;;;;6136013;23;20029;-92
2020/12/26 02:41:18;;;;;;;;;;;;;;;;;;;;;
2020/12/26 02:43:54;;;;;;;2.33;1.55;;;25.60;85.70;;;;;;6137681;23;19990;-94
2020/12/26 02:46:51;;;;;;;2.38;1.50;;;25.60;85.50;;;;;;6113884;23;20061;-94
2020/12/26 02:49:18;;;;;;;3.05;1.70;;;25.60;85.70;;;;;;6113710;23;20121;-94
2020/12/26 02:51:47;;;;;;;3.53;1.58;;;25.60;85.70;;;;;;6126738;23;20028;-95
2020/12/26 02:54:16;;;;;;;3.05;1.70;;;25.50;85.60;;;;;;6201597;23;20281;-94
2020/12/26 02:57:06;;;;;;;2.92;1.48;;;25.50;85.80;;;;;;6200567;23;20031;-95
2020/12/26 02:59:33;;;;;;;2.55;1.13;;;25.50;86.10;;;;;;6178541;23;20001;-94
2020/12/26 03:02:11;;;;;;;2.03;1.17;;;25.40;85.90;;;;;;6200188;23;20000;-95
2020/12/26 03:04:48;;;;;;;5.38;1.58;;;25.40;86.00;;;;;;6202066;23;20000;-93
2020/12/26 03:07:17;;;;;;;2.58;1.40;;;25.40;86.00;;;;;;6228521;23;20000;-95
2020/12/26 03:09:43;;;;;;;4.10;1.73;;;25.40;86.40;;;;;;6211882;23;20079;-94
2020/12/26 03:12:10;;;;;;;2.00;1.42;;;25.40;86.30;;;;;;6230749;23;20003;-95
2020/12/26 03:14:39;;;;;;;4.82;1.73;;;25.40;86.30;;;;;;6233289;23;20000;-94
2020/12/26 03:17:20;;;;;;;2.28;1.08;;;25.40;86.70;;;;;;6233477;23;20042;-94
2020/12/26 03:19:49;;;;;;;4.43;1.75;;;25.30;86.80;;;;;;6207995;23;20004;-95
2020/12/26 03:22:31;;;;;;;;;;;;;;;;;;;;;
2020/12/26 03:24:59;;;;;;;4.07;1.42;;;25.30;86.90;;;;;;6259616;23;20019;-95
2020/12/26 03:27:34;;;;;;;1.55;1.23;;;25.30;86.50;;;;;;6260082;22;19996;-95
2020/12/26 03:30:03;;;;;;;4.22;1.50;;;25.30;86.50;;;;;;6233758;23;20285;-95
2020/12/26 03:32:31;;;;;;;2.53;1.45;;;25.20;86.40;;;;;;6263558;23;19992;-94
2020/12/26 03:34:58;;;;;;;3.55;1.45;;;25.20;87.30;;;;;;6233887;23;19996;-95
2020/12/26 03:37:24;;;;;;;2.15;1.50;;;25.20;86.90;;;;;;6263283;23;19995;-96
2020/12/26 03:39:53;;;;;;;1.98;1.27;;;25.20;87.00;;;;;;6234012;23;20000;-96
2020/12/26 03:42:37;;;;;;;1.92;1.35;;;25.20;87.10;;;;;;6233978;23;20288;-95
2020/12/26 03:45:07;;;;;;;4.13;1.17;;;25.10;87.10;;;;;;6233487;23;20000;-95
2020/12/26 03:47:37;;;;;;;2.00;1.30;;;25.10;86.40;;;;;;6208942;23;20000;-94
2020/12/26 03:50:04;;;;;;;2.03;1.15;;;25.10;86.60;;;;;;6234973;23;20334;-94
2020/12/26 03:55:55;;;;;;;3.45;1.40;;;25.10;86.80;;;;;;6084958;23;20034;-94
2020/12/26 03:58:24;;;;;;;2.58;1.27;;;25.10;86.70;;;;;;6138047;23;20008;-96
2020/12/26 04:00:53;;;;;;;3.30;1.13;;;25.00;87.20;;;;;;6259938;23;19992;-96
2020/12/26 04:03:20;;;;;;;2.80;1.35;;;25.00;86.80;;;;;;6233928;23;20001;-96
2020/12/26 04:05:49;;;;;;;1.95;1.20;;;25.00;87.00;;;;;;6234018;23;19996;-96
2020/12/26 04:08:17;;;;;;;2.72;1.55;;;25.00;87.00;;;;;;6235862;23;20011;-96
2020/12/26 04:10:44;;;;;;;1.63;1.23;;;25.00;86.80;;;;;;6235539;23;20012;-96
2020/12/26 04:13:11;;;;;;;2.97;1.52;;;25.00;87.10;;;;;;6233769;23;19996;-96
2020/12/26 04:15:40;;;;;;;2.17;1.40;;;25.00;86.80;;;;;;6261701;23;20008;-96
2020/12/26 04:18:06;;;;;;;2.30;1.20;;;25.00;86.30;;;;;;6235647;23;19997;-95
2020/12/26 04:20:41;;;;;;;2.33;1.58;;;25.00;87.20;;;;;;6258543;23;19997;-95
2020/12/26 04:23:09;;;;;;;5.43;1.50;;;25.00;86.60;;;;;;6232627;23;20288;-95
2020/12/26 04:25:36;;;;;;;2.65;1.10;;;25.00;87.30;;;;;;6232417;23;19996;-96
2020/12/26 04:28:03;;;;;;;1.58;1.17;;;24.90;87.10;;;;;;6232762;23;20000;-95
2020/12/26 04:30:31;;;;;;;2.17;1.40;;;24.90;87.00;;;;;;6207514;23;20000;-94
2020/12/26 04:32:58;;;;;;;3.75;1.42;;;24.90;87.20;;;;;;6232344;23;20000;-94
2020/12/26 04:35:25;;;;;;;3.20;1.23;;;24.90;87.50;;;;;;6234107;23;20027;-94
2020/12/26 04:37:51;;;;;;;2.42;1.50;;;24.80;86.90;;;;;;6235479;23;20000;-96
2020/12/26 04:40:23;;;;;;;2.13;1.20;;;24.80;87.50;;;;;;6231057;23;20058;-95
2020/12/26 04:42:51;;;;;;;3.22;1.20;;;24.80;87.60;;;;;;6231366;23;20063;-95
2020/12/26 04:45:18;;;;;;;2.17;1.48;;;24.80;87.30;;;;;;6205917;23;20249;-95
2020/12/26 04:48:04;;;;;;;3.08;1.25;;;24.80;87.90;;;;;;6231135;23;20000;-95
2020/12/26 04:50:34;;;;;;;3.65;1.50;;;24.80;87.30;;;;;;6230540;23;20000;-93
2020/12/26 04:53:05;;;;;;;2.20;1.35;;;24.70;87.00;;;;;;6230979;23;19992;-94
2020/12/26 04:55:34;;;;;;;2.15;1.23;;;24.70;87.50;;;;;;6230803;23;20002;-94
2020/12/26 04:58:17;;;;;;;1.50;1.08;;;24.60;88.20;;;;;;6230664;23;20055;-93
2020/12/26 05:00:43;;;;;;;;;;;24.60;87.80;;;;;;6231792;23;20005;-94
2020/12/26 05:03:19;;;;;;;2.83;1.48;;;24.60;88.40;;;;;;6234570;23;19900;-94
2020/12/26 05:05:46;;;;;;;2.05;1.27;;;24.60;87.80;;;;;;6230662;23;20003;-94
2020/12/26 05:08:14;;;;;;;2.25;1.38;;;24.60;88.50;;;;;;6231230;23;19996;-94
2020/12/26 05:10:42;;;;;;;3.15;1.63;;;24.50;89.50;;;;;;6233961;23;20235;-95
2020/12/26 05:13:18;;;;;;;4.63;1.30;;;24.50;89.70;;;;;;6231011;23;20062;-96
2020/12/26 05:15:45;;;;;;;2.95;1.50;;;24.50;89.50;;;;;;6230599;23;20022;-94
2020/12/26 05:18:16;;;;;;;3.13;1.40;;;24.50;89.60;;;;;;6234046;23;20054;-94
2020/12/26 05:20:50;;;;;;;5.97;2.28;;;24.50;90.10;;;;;;6234672;23;20016;-94
2020/12/26 05:23:20;;;;;;;2.85;1.40;;;24.30;90.20;;;;;;6243209;22;19996;-92
2020/12/26 05:25:50;;;;;;;5.00;1.83;;;24.30;90.10;;;;;;6248667;22;20048;-92
2020/12/26 05:28:31;;;;;;;3.28;1.90;;;24.30;90.10;;;;;;6240544;23;20012;-93
2020/12/26 05:30:58;;;;;;;4.03;1.70;;;24.30;89.90;;;;;;6248836;22;19996;-91
2020/12/26 05:33:30;;;;;;;3.05;1.50;;;24.30;89.90;;;;;;6229635;22;20008;-93
2020/12/26 05:36:04;;;;;;;1.65;1.40;;;24.20;90.20;;;;;;6247879;23;19996;-93
2020/12/26 05:38:31;;;;;;;3.22;1.70;;;24.20;90.50;;;;;;6247837;22;20012;-92
2020/12/26 05:41:00;;;;;;;2.00;1.52;;;24.10;90.90;;;;;;6247995;23;19984;-93
2020/12/26 05:43:29;;;;;;;3.58;1.90;;;24.00;91.20;;;;;;6242030;23;20003;-94
2020/12/26 05:45:58;;;;;;;2.83;1.52;;;24.00;91.50;;;;;;6231153;23;19999;-95
2020/12/26 05:48:28;;;;;;;4.53;1.67;;;23.90;91.40;;;;;;6231700;23;20001;-94
2020/12/26 05:51:00;;;;;;;3.10;1.60;;;23.90;91.00;;;;;;6230287;23;19992;-94
2020/12/26 05:53:28;;;;;;;2.13;1.30;;;23.90;91.10;;;;;;6231424;23;20276;-95
2020/12/26 05:55:55;;;;;;;2.70;1.40;;;24.00;91.40;;;;;;6231158;23;19992;-95
2020/12/26 05:58:24;;;;;;;3.35;1.40;;;23.90;91.20;;;;;;6230898;23;19999;-95
2020/12/26 06:00:52;;;;;;;2.83;1.58;;;23.90;91.20;;;;;;6230415;23;20056;-94
2020/12/26 06:03:33;;;;;;;2.15;1.38;;;24.00;90.90;;;;;;6230553;23;20007;-93
2020/12/26 06:06:13;;;;;;;3.35;1.50;;;24.00;90.70;;;;;;6230173;23;19996;-95
2020/12/26 06:08:48;;;;;;;3.10;1.60;;;24.00;90.80;;;;;;6262626;23;20015;-92
2020/12/26 06:11:17;;;;;;;1.80;1.20;;;24.00;91.20;;;;;;6229990;23;19992;-94
2020/12/26 06:13:53;;;;;;;2.55;1.38;;;24.00;90.70;;;;;;6231892;23;20047;-96
2020/12/26 06:16:25;;;;;;;3.95;1.30;;;24.00;90.90;;;;;;6229662;23;19992;-96
2020/12/26 06:18:59;;;;;;;5.00;1.50;;;24.00;91.20;;;;;;6231855;23;19999;-96
2020/12/26 06:21:27;;;;;;;4.40;1.95;;;23.90;91.00;;;;;;6231470;23;20193;-95
2020/12/26 06:23:54;;;;;;;2.45;1.50;;;23.90;91.10;;;;;;6231600;23;20004;-95
2020/12/26 06:26:21;;;;;;;3.30;1.77;;;23.90;91.50;;;;;;6230160;23;19996;-95
2020/12/26 06:28:54;;;;;;;2.90;1.40;;;23.80;91.30;;;;;;6231021;23;20003;-96
2020/12/26 06:31:24;;;;;;;1.95;1.35;;;23.70;91.00;;;;;;6230365;23;19988;-95
2020/12/26 06:33:50;;;;;;;2.75;1.42;;;23.80;91.40;;;;;;6230269;23;20008;-95
2020/12/26 06:36:20;;;;;;;3.65;1.60;;;23.80;91.20;;;;;;6230681;23;20016;-95
2020/12/26 06:38:47;;;;;;;1.95;1.50;;;23.80;91.10;;;;;;6236144;22;20011;-96
2020/12/26 06:41:15;;;;;;;3.85;1.35;;;23.80;91.30;;;;;;6233954;23;20268;-96
2020/12/26 06:43:46;;;;;;;1.85;1.40;;;23.80;91.20;;;;;;6232118;23;20004;-95
2020/12/26 06:46:22;;;;;;;4.18;1.48;;;23.70;91.00;;;;;;6232470;23;20221;-94
2020/12/26 06:48:57;;;;;;;1.90;1.00;;;23.70;91.10;;;;;;6231709;23;20300;-92
2020/12/26 06:51:42;;;;;;;1.88;1.08;;;23.70;91.20;;;;;;6232023;23;19992;-95
2020/12/26 06:54:12;;;;;;;2.17;1.33;;;23.70;91.10;;;;;;6232427;23;20046;-95
2020/12/26 06:56:41;;;;;;;2.63;1.40;;;23.60;91.60;;;;;;6231846;23;19992;-94
2020/12/26 06:59:09;;;;;;;3.60;1.42;;;23.60;91.60;;;;;;6231710;23;19996;-95
2020/12/26 07:01:38;;;;;;;1.98;1.25;;;23.60;91.80;;;;;;6232288;23;20015;-96
2020/12/26 07:04:10;;;;;;;2.90;1.77;;;23.60;91.80;;;;;;6232061;23;20000;-96
2020/12/26 07:06:38;;;;;;;2.63;1.52;;;23.50;91.90;;;;;;6232413;23;20061;-95
2020/12/26 07:09:06;;;;;;;4.93;1.60;;;23.50;92.30;;;;;;6231407;23;20253;-94
2020/12/26 07:11:42;;;;;;;2.00;1.40;;;23.50;92.50;;;;;;6232133;23;20053;-95
2020/12/26 07:14:09;;;;;;;3.30;1.50;;;23.40;92.30;;;;;;6232012;23;19992;-95
2020/12/26 07:16:46;;;;;;;3.53;1.90;;;23.40;92.40;;;;;;6231964;23;20035;-94
2020/12/26 07:19:32;;;;;;;2.97;1.50;;;23.40;92.70;;;;;;6232004;23;20068;-94
2020/12/26 07:22:06;;;;;;;3.17;1.42;;;23.30;92.80;;;;;;6231758;23;20004;-95
2020/12/26 07:24:39;;;;;;;3.90;1.50;;;23.30;92.90;;;;;;6231885;23;19992;-95
2020/12/26 07:27:32;;;;;;;2.30;1.48;;;23.30;93.00;;;;;;6231823;23;20054;-95
2020/12/26 07:30:06;;;;;;;4.18;1.50;;;23.30;92.90;;;;;;6232362;23;20016;-94
2020/12/26 07:32:55;;;;;;;4.10;1.70;;;23.40;92.70;;;;;;6231824;23;20004;-95
2020/12/26 07:35:22;;;;;;;3.63;1.67;;;23.40;92.50;;;;;;6231735;23;20280;-95
2020/12/26 07:37:54;;;;;;;1.75;1.33;;;23.40;92.40;;;;;;6232873;23;20020;-95
2020/12/26 07:40:28;;;;;;;1.98;1.35;;;23.40;92.90;;;;;;6231467;23;20300;-95
2020/12/26 07:42:56;;;;;;;2.97;1.58;;;23.40;92.40;;;;;;6233350;23;20004;-96
2020/12/26 07:45:25;;;;;;;2.28;1.45;;;23.30;92.60;;;;;;6237290;23;20000;-94
2020/12/26 07:47:54;;;;;;;4.80;1.50;;;23.20;92.50;;;;;;6240030;23;20019;-95
2020/12/26 07:50:25;;;;;;;2.20;1.27;;;23.30;92.50;;;;;;6242048;23;19996;-95
2020/12/26 07:52:54;;;;;;;7.55;1.90;;;23.30;92.50;;;;;;6214288;23;20114;-96
2020/12/26 07:55:21;;;;;;;2.95;1.80;;;23.30;92.70;;;;;;6239791;23;20024;-95
2020/12/26 07:57:49;;;;;;;2.20;1.50;;;23.30;92.70;;;;;;6238550;23;20000;-95
2020/12/26 08:00:27;;;;;;;2.20;1.35;;;23.30;92.90;;;;;;6240685;23;20012;-94
2020/12/26 08:02:56;;;;;;;2.38;1.40;;;23.20;93.00;;;;;;6238518;23;20000;-95
2020/12/26 08:05:28;;;;;;;3.60;1.40;;;23.20;92.50;;;;;;6238103;23;19999;-96
2020/12/26 08:07:55;;;;;;;2.05;1.25;;;23.00;93.40;;;;;;6235269;23;20216;-96
2020/12/26 08:10:24;;;;;;;2.30;1.60;;;23.00;93.50;;;;;;6233732;23;20004;-96
2020/12/26 08:13:03;;;;;;;2.33;1.50;;;23.00;93.20;;;;;;6233961;23;20180;-96
2020/12/26 08:15:31;;;;;;;2.78;1.58;;;23.00;93.30;;;;;;6237978;23;20058;-95
2020/12/26 08:18:00;;;;;;;2.95;1.35;;;23.10;93.20;;;;;;6236503;23;19997;-96
2020/12/26 08:20:47;;;;;;;4.00;1.55;;;23.10;92.90;;;;;;6231186;23;20000;-95
2020/12/26 08:23:15;;;;;;;3.00;1.80;;;23.10;92.40;;;;;;6231958;23;20000;-96
2020/12/26 08:25:42;;;;;;;2.75;1.70;;;23.10;92.60;;;;;;6234916;23;20026;-95
2020/12/26 08:28:10;;;;;;;2.55;1.55;;;23.10;93.30;;;;;;6231753;23;20007;-95
2020/12/26 08:30:38;;;;;;;4.55;1.70;;;23.00;93.50;;;;;;6231384;23;20020;-94
2020/12/26 08:33:25;;;;;;;3.38;1.50;;;23.00;93.50;;;;;;6231418;23;20012;-95
2020/12/26 08:36:09;;;;;;;12.95;2.88;;;23.00;93.40;;;;;;6235657;23;19999;-96
2020/12/26 08:38:51;;;;;;;22.20;4.55;;;22.80;94.00;;;;;;6237804;22;20000;-96
2020/12/26 08:41:19;;;;;;;30.05;4.43;;;22.80;93.90;;;;;;6232080;23;20054;-96
2020/12/26 08:43:47;;;;;;;3.83;1.90;;;22.90;94.00;;;;;;6232006;23;19996;-95
2020/12/26 08:46:19;;;;;;;5.38;1.77;;;22.90;93.50;;;;;;6232697;23;20015;-95
2020/12/26 08:49:05;;;;;;;3.08;1.45;;;22.90;93.80;;;;;;6234388;23;20201;-96
2020/12/26 08:51:38;;;;;;;4.35;1.70;;;22.90;93.80;;;;;;6233526;23;20281;-94
2020/12/26 08:54:06;;;;;;;5.38;1.80;;;22.90;93.40;;;;;;6234778;23;20176;-95
2020/12/26 08:56:36;;;;;;;3.00;1.83;;;22.90;93.40;;;;;;6236429;23;20027;-96
2020/12/26 08:59:03;;;;;;;3.90;2.13;;;22.80;93.60;;;;;;6234796;23;19996;-96
2020/12/26 09:01:31;;;;;;;3.75;1.70;;;22.70;94.10;;;;;;6234427;23;19996;-95
2020/12/26 09:04:00;;;;;;;5.38;2.03;;;22.70;93.30;;;;;;6236162;23;19992;-95
2020/12/26 09:06:34;;;;;;;10.45;1.92;;;22.80;93.90;;;;;;6238706;23;20015;-94
2020/12/26 09:09:36;;;;;;;3.88;1.70;;;22.70;94.10;;;;;;6236706;23;20018;-94
2020/12/26 09:12:06;;;;;;;4.63;2.13;;;22.60;94.10;;;;;;6230644;23;20000;-96
2020/12/26 09:14:33;;;;;;;3.42;1.52;;;22.70;93.80;;;;;;6233085;23;20006;-95
2020/12/26 09:17:01;;;;;;;6.18;3.47;;;22.70;94.30;;;;;;6233916;23;20063;-95
2020/12/26 09:19:41;;;;;;;4.63;2.30;;;22.60;94.60;;;;;;6236848;23;19995;-94
2020/12/26 09:22:09;;;;;;;4.00;1.60;;;22.60;94.50;;;;;;6234323;23;20030;-95
2020/12/26 09:24:57;;;;;;;6.13;2.08;;;22.70;94.40;;;;;;6236108;23;19996;-95
2020/12/26 09:27:25;;;;;;;4.25;1.60;;;22.70;94.60;;;;;;6179710;23;20015;-95
2020/12/26 09:30:04;;;;;;;5.25;2.08;;;22.60;94.40;;;;;;6233126;23;20292;-95
2020/12/26 09:32:31;;;;;;;4.10;1.65;;;22.70;93.80;;;;;;6231263;23;20008;-94
2020/12/26 09:34:58;;;;;;;5.30;2.38;;;22.70;93.90;;;;;;6232199;23;19992;-95
2020/12/26 09:37:25;;;;;;;3.28;1.73;;;22.70;94.20;;;;;;6231731;23;20119;-94
2020/12/26 09:39:51;;;;;;;3.78;1.65;;;22.60;94.30;;;;;;6231752;23;20001;-94
2020/12/26 09:42:25;;;;;;;7.25;2.50;;;22.40;94.50;;;;;;6232308;23;20007;-95
2020/12/26 09:44:51;;;;;;;5.03;2.80;;;22.20;95.20;;;;;;6232021;23;19992;-95
2020/12/26 09:47:18;;;;;;;3.03;1.95;;;22.30;95.00;;;;;;6233551;23;20004;-95
2020/12/26 09:49:46;;;;;;;5.93;2.08;;;22.40;94.90;;;;;;6260359;23;19996;-95
2020/12/26 09:52:13;;;;;;;2.88;1.85;;;22.50;94.50;;;;;;6233115;23;20000;-95
2020/12/26 09:54:39;;;;;;;5.20;2.10;;;22.40;95.10;;;;;;6233333;23;20280;-96
2020/12/26 09:57:06;;;;;;;4.97;2.42;;;22.30;95.20;;;;;;6235054;23;20050;-96
2020/12/26 09:59:36;;;;;;;3.05;2.03;;;22.40;95.00;;;;;;6232284;23;19992;-96
2020/12/26 10:02:05;;;;;;;11.45;2.42;;;22.30;95.10;;;;;;6236068;23;20019;-96
2020/12/26 10:04:32;;;;;;;3.85;2.10;;;22.30;95.00;;;;;;6233180;23;19998;-96
2020/12/26 10:07:00;;;;;;;4.05;2.00;;;22.40;95.00;;;;;;6233077;23;20027;-96
2020/12/26 10:09:26;;;;;;;4.70;2.40;;;22.40;95.00;;;;;;6232488;23;19996;-95
2020/12/26 10:11:53;;;;;;;7.68;2.42;;;22.20;95.40;;;;;;6232442;23;20015;-96
2020/12/26 10:14:22;;;;;;;5.82;2.15;;;22.30;95.40;;;;;;6228513;23;20062;-95
2020/12/26 10:17:14;;;;;;;4.38;2.40;;;22.30;94.90;;;;;;6196320;22;20027;-95
2020/12/26 10:19:54;;;;;;;4.60;2.42;;;22.40;95.00;;;;;;6236372;23;20323;-94
2020/12/26 10:22:21;;;;;;;6.35;3.53;;;22.40;94.70;;;;;;6233747;23;20000;-94
2020/12/26 10:24:48;;;;;;;6.80;4.10;;;22.40;94.70;;;;;;6203520;23;19997;-95
2020/12/26 10:27:14;;;;;;;7.40;2.47;;;22.50;94.80;;;;;;6204425;23;20000;-94
2020/12/26 10:29:44;;;;;;;3.60;2.50;;;22.40;95.00;;;;;;6203708;23;20011;-94
2020/12/26 10:32:16;;;;;;;6.28;2.58;;;22.40;94.90;;;;;;6203857;23;20003;-94
2020/12/26 10:34:43;;;;;;;6.30;2.45;;;22.30;95.10;;;;;;6204351;23;19996;-94
2020/12/26 10:37:12;;;;;;;7.95;2.88;;;22.40;94.80;;;;;;6206231;23;20020;-95
2020/12/26 10:39:39;;;;;;;8.75;3.20;;;22.50;94.20;;;;;;6201573;23;20016;-95
2020/12/26 10:42:05;;;;;;;4.88;3.08;;;22.50;94.30;;;;;;6174309;23;20007;-94
2020/12/26 10:44:32;;;;;;;5.05;2.67;;;22.50;94.30;;;;;;6173879;23;20001;-94
2020/12/26 10:46:59;;;;;;;5.57;3.13;;;22.50;94.70;;;;;;6174006;23;20001;-95
2020/12/26 10:49:25;;;;;;;5.80;2.83;;;22.40;94.90;;;;;;6174035;23;20068;-95
2020/12/26 10:51:52;;;;;;;9.90;3.33;;;22.40;94.80;;;;;;6173874;23;20273;-95
2020/12/26 10:54:19;;;;;;;7.18;3.30;;;22.30;95.00;;;;;;6174317;23;20036;-94
2020/12/26 10:56:47;;;;;;;4.82;3.05;;;22.30;94.70;;;;;;6149897;23;20055;-93
2020/12/26 10:59:23;;;;;;;7.97;3.25;;;22.40;94.50;;;;;;6175043;23;20001;-95
2020/12/26 11:01:53;;;;;;;9.35;3.22;;;22.40;94.80;;;;;;6203200;23;20001;-95
2020/12/26 11:04:22;;;;;;;5.88;2.78;;;22.40;94.50;;;;;;6175003;23;19997;-93
2020/12/26 11:06:51;;;;;;;5.30;2.78;;;22.40;94.50;;;;;;6175560;23;20027;-93
2020/12/26 11:09:18;;;;;;;3.30;2.42;;;22.40;94.30;;;;;;6177252;23;20061;-94
2020/12/26 11:11:48;;;;;;;4.32;3.13;;;22.40;94.60;;;;;;6175591;23;20029;-94
2020/12/26 11:14:16;;;;;;;3.80;2.35;;;22.40;94.30;;;;;;6173802;23;19997;-93
2020/12/26 11:16:50;;;;;;;5.88;3.63;;;22.30;94.30;;;;;;6174480;23;20174;-95
2020/12/26 11:19:18;;;;;;;10.63;4.47;;;22.30;94.40;;;;;;6201082;23;20170;-95
2020/12/26 11:21:45;;;;;;;8.07;4.28;;;22.30;94.40;;;;;;6229469;23;20040;-96
2020/12/26 11:24:12;;;;;;;8.80;4.03;;;22.30;94.60;;;;;;6229297;23;20267;-93
2020/12/26 11:27:02;;;;;;;;;;;;;;;;;;;;;
2020/12/26 11:29:39;;;;;;;5.88;3.35;;;22.30;94.00;;;;;;6227040;22;20004;-95
2020/12/26 11:32:17;;;;;;;5.90;3.13;;;22.30;93.90;;;;;;6272501;22;19998;-96
2020/12/26 11:34:57;;;;;;;5.55;3.28;;;22.40;93.90;;;;;;6240862;23;20030;-94
2020/12/26 11:37:27;;;;;;;4.10;3.42;;;22.50;93.90;;;;;;6239950;23;20000;-95
2020/12/26 11:42:48;;;;;;;5.32;3.40;;;22.50;93.90;;;;;;6204320;23;20181;-95
2020/12/26 11:51:53;;;;;;;6.20;4.20;;;22.60;93.80;;;;;;6264118;22;20012;-95
2020/12/26 11:54:24;;;;;;;8.30;4.35;;;22.50;93.60;;;;;;6139491;23;20014;-96
2020/12/26 11:56:55;;;;;;;5.55;3.53;;;22.60;93.40;;;;;;6088982;23;20006;-94
2020/12/26 11:59:26;;;;;;;6.07;4.00;;;22.60;93.30;;;;;;6088030;23;19997;-90
2020/12/26 12:02:21;;;;;;;7.03;4.32;;;22.60;93.40;;;;;;6097359;22;20012;-93
2020/12/26 12:05:21;;;;;;;6.70;4.15;;;22.70;93.40;;;;;;6226756;22;20743;-93
2020/12/26 12:07:48;;;;;;;5.93;4.30;;;22.90;93.00;;;;;;6167013;23;20020;-94
2020/12/26 12:12:53;;;;;;;9.57;5.43;;;22.90;92.70;;;;;;6224060;22;20047;-94
2020/12/26 12:15:24;;;;;;;7.70;4.85;;;23.10;92.40;;;;;;6228394;22;20008;-95
2020/12/26 12:17:53;;;;;;;5.57;4.45;;;23.20;92.00;;;;;;6191481;23;20032;-95
2020/12/26 12:20:20;;;;;;;7.65;4.20;;;23.50;91.90;;;;;;6217533;23;19992;-95
2020/12/26 12:22:47;;;;;;;6.22;3.88;;;23.60;92.70;;;;;;6219070;23;19996;-92
2020/12/26 12:25:14;;;;;;;8.13;5.45;;;23.90;92.50;;;;;;6218390;23;19995;-95
2020/12/26 12:27:40;;;;;;;11.75;5.72;;;24.10;91.80;;;;;;6217716;23;20008;-95
2020/12/26 12:30:07;;;;;;;5.93;4.07;;;24.40;92.00;;;;;;6217385;23;20016;-95
2020/12/26 12:32:37;;;;;;;6.43;4.47;;;24.60;90.40;;;;;;6216786;23;20014;-96
2020/12/26 12:35:03;;;;;;;6.03;4.28;;;24.80;90.20;;;;;;6208662;23;19989;-91
2020/12/26 12:37:30;;;;;;;6.53;4.22;;;25.10;89.90;;;;;;6205105;23;20005;-96
2020/12/26 12:39:57;;;;;;;9.95;4.90;;;25.50;86.40;;;;;;6207766;23;20001;-95
2020/12/26 12:42:26;;;;;;;5.43;4.25;;;25.70;86.90;;;;;;6205126;23;20007;-94
2020/12/26 12:44:53;;;;;;;4.93;3.92;;;25.90;84.10;;;;;;6209482;23;20000;-96
2020/12/26 12:47:35;;;;;;;5.82;3.58;;;26.30;83.60;;;;;;6206626;23;20052;-96
2020/12/26 12:50:02;;;;;;;5.10;3.67;;;26.40;83.90;;;;;;6209479;23;20073;-96
2020/12/26 12:52:29;;;;;;;5.47;3.38;;;26.30;84.30;;;;;;6204012;23;20005;-96
2020/12/26 12:55:01;;;;;;;6.63;4.20;;;26.20;83.50;;;;;;6230899;23;20000;-96
2020/12/26 12:57:30;;;;;;;7.38;5.10;;;26.20;84.00;;;;;;6205818;23;20001;-92
2020/12/26 12:59:56;;;;;;;5.65;4.55;;;26.20;84.80;;;;;;6215734;23;20016;-92
2020/12/26 13:02:33;;;;;;;6.47;3.92;;;26.30;85.00;;;;;;6236581;23;20004;-93
2020/12/26 13:05:02;;;;;;;6.70;4.40;;;26.40;83.70;;;;;;6168095;23;20009;-91
2020/12/26 13:07:34;;;;;;;7.32;4.22;;;26.60;83.60;;;;;;6201040;23;20005;-90
2020/12/26 13:10:20;;;;;;;5.78;3.78;;;26.60;83.60;;;;;;6142759;23;20009;-91
2020/12/26 13:12:47;;;;;;;5.95;4.05;;;26.80;84.10;;;;;;6145750;23;20018;-91
2020/12/26 13:15:16;;;;;;;7.10;4.00;;;26.80;82.30;;;;;;6143173;23;20026;-90
2020/12/26 13:17:43;;;;;;;5.15;3.35;;;27.20;82.40;;;;;;6145692;23;20037;-90
2020/12/26 13:20:12;;;;;;;6.03;3.45;;;27.70;80.80;;;;;;6149252;23;20065;-89
2020/12/26 13:22:39;;;;;;;5.50;3.90;;;27.80;78.10;;;;;;6119593;23;20012;-91
2020/12/26 13:25:14;;;;;;;5.75;3.60;;;28.10;79.80;;;;;;6147625;23;20038;-93
2020/12/26 13:28:01;;;;;;;5.18;3.40;;;28.20;79.10;;;;;;6145574;23;20005;-92
2020/12/26 13:30:30;;;;;;;4.53;3.58;;;28.60;79.00;;;;;;6145951;23;20014;-92
2020/12/26 13:33:01;;;;;;;5.28;3.88;;;28.80;77.50;;;;;;6146703;23;20018;-93
2020/12/26 13:35:30;;;;;;;7.40;3.75;;;29.00;75.70;;;;;;6143323;23;20014;-94
2020/12/26 13:38:02;;;;;;;5.32;3.55;;;29.30;75.40;;;;;;6144732;23;19993;-93
2020/12/26 13:40:33;;;;;;;7.88;3.70;;;29.60;76.00;;;;;;6145838;23;20041;-93
2020/12/26 13:43:00;;;;;;;4.05;3.28;;;29.80;74.10;;;;;;6133288;23;20005;-94
2020/12/26 13:45:40;;;;;;;5.47;2.88;;;29.90;73.90;;;;;;6141703;23;20007;-95
2020/12/26 13:48:46;;;;;;;10.82;3.13;;;30.10;73.00;;;;;;6143534;23;20018;-91
2020/12/26 13:51:29;;;;;;;3.53;2.50;;;30.00;72.60;;;;;;6142710;23;20254;-93
2020/12/26 14:04:54;;;;;;;2.40;2.05;;;31.00;69.90;;;;;;6115695;23;20017;-95
2020/12/26 14:08:13;;;;;;;5.35;2.33;;;30.70;68.50;;;;;;6109219;23;20010;-93
2020/12/26 14:11:27;;;;;;;3.45;1.95;;;30.90;70.00;;;;;;6068932;23;20023;-96
2020/12/26 14:19:47;;;;;;;2.97;1.90;;;31.60;67.60;;;;;;6258563;22;20019;-93
2020/12/26 14:22:13;;;;;;;2.70;1.90;;;31.50;68.30;;;;;;6246447;22;19988;-93
2020/12/26 14:24:54;;;;;;;6.07;2.00;;;31.30;68.60;;;;;;6238576;23;20004;-89
2020/12/26 14:27:48;;;;;;;7.03;2.47;;;30.80;68.60;;;;;;6272076;22;20040;-91
2020/12/26 14:30:19;;;;;;;4.90;2.45;;;30.60;69.10;;;;;;6247315;22;20024;-90
2020/12/26 14:32:46;;;;;;;4.22;2.35;;;30.40;69.70;;;;;;6245434;23;20220;-84
2020/12/26 14:35:15;;;;;;;3.63;2.53;;;30.50;69.50;;;;;;6267811;23;20055;-85
2020/12/26 14:37:49;;;;;;;5.25;3.88;;;30.90;69.50;;;;;;6268338;23;19996;-87
2020/12/26 14:40:16;;;;;;;3.97;2.42;;;31.30;67.40;;;;;;6244360;23;20012;-93
2020/12/26 14:42:43;;;;;;;3.15;2.05;;;31.80;67.00;;;;;;6247874;23;20063;-94
2020/12/26 14:45:12;;;;;;;3.05;1.95;;;32.10;64.40;;;;;;6240730;23;20347;-90
2020/12/26 14:47:56;;;;;;;6.00;2.05;;;32.00;64.00;;;;;;6246181;23;20000;-90
2020/12/26 14:50:25;;;;;;;6.57;2.25;;;32.60;64.90;;;;;;6153767;23;20721;-88
2020/12/26 14:53:20;;;;;;;4.40;1.92;;;32.80;64.70;;;;;;6269289;22;20035;-86
2020/12/26 14:56:12;;;;;;;3.80;1.98;;;33.20;58.50;;;;;;6217415;23;20008;-84